sensor_id;sensor_type;location;lat;lon;timestamp;P1;P2;P0
74430;PMS7003;62863;52.062;23.764;2024-02-26T00:04:42;48.2;38.8;25.8
74430;PMS7003;62863;52.062;23.764;2024-02-26T00:09:46;48.8;37.8;25.2
74430;PMS7003;62863;52.062;23.764;2024-02-26T00:14:24;50.2;39;25
74430;PMS7003;62863;52.062;23.764;2024-02-26T00:19:22;49;38.3;25
74430;PMS7003;62863;52.062;23.764;2024-02-26T00:25:00;46.8;38.6;25
74430;PMS7003;62863;52.062;23.764;2024-02-26T00:29:38;48;38.4;25.2
74430;PMS7003;62863;52.062;23.764;2024-02-26T00:35:02;48.6;40.2;25.6
74430;PMS7003;62863;52.062;23.764;2024-02-26T00:39:30;51.4;39.2;26.2
74430;PMS7003;62863;52.062;23.764;2024-02-26T00:44:52;51.2;40.4;26.2
74430;PMS7003;62863;52.062;23.764;2024-02-26T00:49:38;43;37.2;25
74430;PMS7003;62863;52.062;23.764;2024-02-26T00:54:40;45.6;39.6;26
74430;PMS7003;62863;52.062;23.764;2024-02-26T00:59:54;46;37.4;24.4
74430;PMS7003;62863;52.062;23.764;2024-02-26T01:05:04;47.6;39.2;26
74430;PMS7003;62863;52.062;23.764;2024-02-26T01:09:22;47.6;39.2;26
74430;PMS7003;62863;52.062;23.764;2024-02-26T01:15:04;51.2;39.4;26
74430;PMS7003;62863;52.062;23.764;2024-02-26T01:20:04;48.5;40;26.3
74430;PMS7003;62863;52.062;23.764;2024-02-26T01:24:54;48.5;40;26.3
74430;PMS7003;62863;52.062;23.764;2024-02-26T01:29:44;49.6;39.6;25.4
74430;PMS7003;62863;52.062;23.764;2024-02-26T01:34:24;48;38.8;25.6
74430;PMS7003;62863;52.062;23.764;2024-02-26T01:39:22;51.6;40.4;26.6
74430;PMS7003;62863;52.062;23.764;2024-02-26T01:44:38;47.2;39.8;26.6
74430;PMS7003;62863;52.062;23.764;2024-02-26T01:50:02;50.4;40.2;26.2
74430;PMS7003;62863;52.062;23.764;2024-02-26T01:54:38;50.8;40.8;26.8
74430;PMS7003;62863;52.062;23.764;2024-02-26T01:59:24;50.4;40;25.6
74430;PMS7003;62863;52.062;23.764;2024-02-26T02:04:22;51.6;40.4;26.2
74430;PMS7003;62863;52.062;23.764;2024-02-26T02:09:36;50.6;39.6;25.8
74430;PMS7003;62863;52.062;23.764;2024-02-26T02:14:38;51.2;40;25.6
74430;PMS7003;62863;52.062;23.764;2024-02-26T02:19:52;50.2;39.6;25.8
74430;PMS7003;62863;52.062;23.764;2024-02-26T02:24:46;47.5;38;25
74430;PMS7003;62863;52.062;23.764;2024-02-26T02:29:48;52.4;40.4;25.8
74430;PMS7003;62863;52.062;23.764;2024-02-26T02:35:04;49.8;40.2;25.6
74430;PMS7003;62863;52.062;23.764;2024-02-26T02:39:46;49.8;40.2;25.6
74430;PMS7003;62863;52.062;23.764;2024-02-26T02:44:36;49.4;39.4;26.2
74430;PMS7003;62863;52.062;23.764;2024-02-26T02:49:52;50;40;25.6
74430;PMS7003;62863;52.062;23.764;2024-02-26T02:54:54;49;40;25.6
74430;PMS7003;62863;52.062;23.764;2024-02-26T02:59:24;47.4;39.8;25.8
74430;PMS7003;62863;52.062;23.764;2024-02-26T03:04:44;50.2;40;25.4
74430;PMS7003;62863;52.062;23.764;2024-02-26T03:09:22;47.2;38.6;26
74430;PMS7003;62863;52.062;23.764;2024-02-26T03:14:22;47.3;38.5;24.3
74430;PMS7003;62863;52.062;23.764;2024-02-26T03:19:30;46;38.4;25.6
74430;PMS7003;62863;52.062;23.764;2024-02-26T03:24:30;46;37.2;24.4
74430;PMS7003;62863;52.062;23.764;2024-02-26T03:29:30;44.2;37.8;24.6
74430;PMS7003;62863;52.062;23.764;2024-02-26T03:34:32;48.2;38.4;25.6
74430;PMS7003;62863;52.062;23.764;2024-02-26T03:39:38;46.3;37.3;24.5
74430;PMS7003;62863;52.062;23.764;2024-02-26T03:45:04;41.3;36.3;23.3
74430;PMS7003;62863;52.062;23.764;2024-02-26T03:49:38;41.3;36.3;23.3
74430;PMS7003;62863;52.062;23.764;2024-02-26T03:54:40;43.6;35.6;23.2
74430;PMS7003;62863;52.062;23.764;2024-02-26T03:59:30;43;37.2;24
74430;PMS7003;62863;52.062;23.764;2024-02-26T04:04:48;38.6;33.4;23.4
74430;PMS7003;62863;52.062;23.764;2024-02-26T04:09:54;43.4;37.4;24
74430;PMS7003;62863;52.062;23.764;2024-02-26T04:14:30;41.2;35.4;24
74430;PMS7003;62863;52.062;23.764;2024-02-26T04:19:42;41.4;35;23.6
74430;PMS7003;62863;52.062;23.764;2024-02-26T04:24:52;39.6;34.4;22.6
74430;PMS7003;62863;52.062;23.764;2024-02-26T04:30:04;36.8;31.6;21.6
74430;PMS7003;62863;52.062;23.764;2024-02-26T04:34:44;36.8;31.6;21.6
74430;PMS7003;62863;52.062;23.764;2024-02-26T04:40:05;39;32;22.2
74430;PMS7003;62863;52.062;23.764;2024-02-26T04:44:22;39;32;22.2
74430;PMS7003;62863;52.062;23.764;2024-02-26T04:49:30;39.6;34.2;22.6
74430;PMS7003;62863;52.062;23.764;2024-02-26T04:54:34;37.3;32.3;22
74430;PMS7003;62863;52.062;23.764;2024-02-26T04:59:38;36.4;32.6;21.2
74430;PMS7003;62863;52.062;23.764;2024-02-26T05:04:22;34;30.4;21.4
74430;PMS7003;62863;52.062;23.764;2024-02-26T05:10:04;36.4;32.8;22
74430;PMS7003;62863;52.062;23.764;2024-02-26T05:14:50;36.4;32.8;22
74430;PMS7003;62863;52.062;23.764;2024-02-26T05:20:02;35.4;31.6;22
74430;PMS7003;62863;52.062;23.764;2024-02-26T05:25:00;37.6;30.8;21
74430;PMS7003;62863;52.062;23.764;2024-02-26T05:29:30;33.8;31.4;21
74430;PMS7003;62863;52.062;23.764;2024-02-26T05:35:02;38.4;31.6;21.8
74430;PMS7003;62863;52.062;23.764;2024-02-26T05:40:00;36.2;31.8;20.8
74430;PMS7003;62863;52.062;23.764;2024-02-26T05:44:52;38;34;23.6
74430;PMS7003;62863;52.062;23.764;2024-02-26T05:50:02;44.4;37.4;25
74430;PMS7003;62863;52.062;23.764;2024-02-26T05:54:48;47.8;39.5;25.5
74430;PMS7003;62863;52.062;23.764;2024-02-26T05:59:54;40.4;35;23.2
74430;PMS7003;62863;52.062;23.764;2024-02-26T06:05:02;39.2;33.4;23.2
74430;PMS7003;62863;52.062;23.764;2024-02-26T06:09:42;41.2;35.6;23.4
74430;PMS7003;62863;52.062;23.764;2024-02-26T06:15:02;38.4;33;23
74430;PMS7003;62863;52.062;23.764;2024-02-26T06:19:42;39;34.2;23
74430;PMS7003;62863;52.062;23.764;2024-02-26T06:24:44;34.4;29.4;20.4
74430;PMS7003;62863;52.062;23.764;2024-02-26T06:29:52;29;25.8;18.8
74430;PMS7003;62863;52.062;23.764;2024-02-26T06:34:38;33.8;29.8;20.2
74430;PMS7003;62863;52.062;23.764;2024-02-26T06:39:30;40;33.4;23.6
74430;PMS7003;62863;52.062;23.764;2024-02-26T06:45:00;42.2;36.4;25
74430;PMS7003;62863;52.062;23.764;2024-02-26T06:49:52;43.6;36;24.8
74430;PMS7003;62863;52.062;23.764;2024-02-26T06:55:00;41.3;36;23.5
74430;PMS7003;62863;52.062;23.764;2024-02-26T06:59:53;41.2;35.2;22.6
74430;PMS7003;62863;52.062;23.764;2024-02-26T07:04:42;48.2;41.2;27.2
74430;PMS7003;62863;52.062;23.764;2024-02-26T07:10:00;51.6;41.4;27.4
74430;PMS7003;62863;52.062;23.764;2024-02-26T07:15:00;38.2;34.4;24
74430;PMS7003;62863;52.062;23.764;2024-02-26T07:19:50;43.6;36.4;23.8
74430;PMS7003;62863;52.062;23.764;2024-02-26T07:24:38;48.6;39.4;26.2
74430;PMS7003;62863;52.062;23.764;2024-02-26T07:29:46;42;36.6;24.8
74430;PMS7003;62863;52.062;23.764;2024-02-26T07:34:30;42.4;37.2;24.2
74430;PMS7003;62863;52.062;23.764;2024-02-26T07:40:00;46.6;38;25.6
74430;PMS7003;62863;52.062;23.764;2024-02-26T07:44:50;50.2;41.4;27.2
74430;PMS7003;62863;52.062;23.764;2024-02-26T07:50:01;58;46;30.4
74430;PMS7003;62863;52.062;23.764;2024-02-26T07:54:50;59;47;30.8
74430;PMS7003;62863;52.062;23.764;2024-02-26T07:59:58;58.8;45.8;29.6
74430;PMS7003;62863;52.062;23.764;2024-02-26T08:04:22;55.6;43.4;29
74430;PMS7003;62863;52.062;23.764;2024-02-26T08:09:22;63.6;50.6;32.4
74430;PMS7003;62863;52.062;23.764;2024-02-26T08:14:30;64.8;49.2;31
74430;PMS7003;62863;52.062;23.764;2024-02-26T08:19:30;56.4;45;29.8
74430;PMS7003;62863;52.062;23.764;2024-02-26T08:24:44;65;52.8;34
74430;PMS7003;62863;52.062;23.764;2024-02-26T08:29:38;72.4;58.8;34.8
74430;PMS7003;62863;52.062;23.764;2024-02-26T08:35:02;58.2;46.2;29.6
74430;PMS7003;62863;52.062;23.764;2024-02-26T08:39:22;49.4;38.4;25.4
74430;PMS7003;62863;52.062;23.764;2024-02-26T08:45:01;57.2;44.2;28.6
74430;PMS7003;62863;52.062;23.764;2024-02-26T08:49:22;51.4;40;27
74430;PMS7003;62863;52.062;23.764;2024-02-26T08:54:50;49.5;39.5;26.3
74430;PMS7003;62863;52.062;23.764;2024-02-26T08:59:22;53.4;41.4;27
74430;PMS7003;62863;52.062;23.764;2024-02-26T09:04:46;48.4;39.6;25.8
74430;PMS7003;62863;52.062;23.764;2024-02-26T09:10:00;51;40.6;26
74430;PMS7003;62863;52.062;23.764;2024-02-26T09:14:30;52.2;41.2;26.4
74430;PMS7003;62863;52.062;23.764;2024-02-26T09:19:23;52;40.8;26.8
74430;PMS7003;62863;52.062;23.764;2024-02-26T09:25:00;56.8;44.8;29.2
74430;PMS7003;62863;52.062;23.764;2024-02-26T09:29:54;53.4;43;28
74430;PMS7003;62863;52.062;23.764;2024-02-26T09:34:24;61.4;47.4;29.4
74430;PMS7003;62863;52.062;23.764;2024-02-26T09:39:52;63;49;31
74430;PMS7003;62863;52.062;23.764;2024-02-26T09:44:22;58.2;46.2;29
74430;PMS7003;62863;52.062;23.764;2024-02-26T09:49:47;59.3;45.8;30
74430;PMS7003;62863;52.062;23.764;2024-02-26T09:54:22;64.7;49.7;30.3
74430;PMS7003;62863;52.062;23.764;2024-02-26T09:59:22;58.6;45;28.8
74430;PMS7003;62863;52.062;23.764;2024-02-26T10:04:22;61.4;48;30
74430;PMS7003;62863;52.062;23.764;2024-02-26T10:09:30;57.2;45.6;30.2
74430;PMS7003;62863;52.062;23.764;2024-02-26T10:14:22;51.4;42;27
74430;PMS7003;62863;52.062;23.764;2024-02-26T10:20:11;53.8;43;27.2
74430;PMS7003;62863;52.062;23.764;2024-02-26T10:24:53;52.8;41.5;26.8
74430;PMS7003;62863;52.062;23.764;2024-02-26T10:29:48;52.4;42.4;26.4
74430;PMS7003;62863;52.062;23.764;2024-02-26T10:34:38;55;42.2;27.4
74430;PMS7003;62863;52.062;23.764;2024-02-26T10:39:48;52;40.2;25.8
74430;PMS7003;62863;52.062;23.764;2024-02-26T10:44:32;48.6;40.2;25.6
74430;PMS7003;62863;52.062;23.764;2024-02-26T10:49:30;50.8;39.8;25.6
74430;PMS7003;62863;52.062;23.764;2024-02-26T10:54:23;56.6;45;27.4
74430;PMS7003;62863;52.062;23.764;2024-02-26T10:59:40;53.8;42.8;26.8
74430;PMS7003;62863;52.062;23.764;2024-02-26T11:05:05;55.4;43;26.2
74430;PMS7003;62863;52.062;23.764;2024-02-26T11:09:44;55.4;43;26.2
74430;PMS7003;62863;52.062;23.764;2024-02-26T11:14:54;53.2;41;27.6
74430;PMS7003;62863;52.062;23.764;2024-02-26T11:19:38;51;41.8;26.8
74430;PMS7003;62863;52.062;23.764;2024-02-26T11:25:03;51.6;40.8;25.8
74430;PMS7003;62863;52.062;23.764;2024-02-26T11:29:37;49.3;38.8;24.3
74430;PMS7003;62863;52.062;23.764;2024-02-26T11:34:30;48.2;39.4;25.4
74430;PMS7003;62863;52.062;23.764;2024-02-26T11:39:52;46;37.6;25.4
74430;PMS7003;62863;52.062;23.764;2024-02-26T11:45:05;47.6;38.8;24.8
74430;PMS7003;62863;52.062;23.764;2024-02-26T11:49:54;47.6;38.8;24.8
74430;PMS7003;62863;52.062;23.764;2024-02-26T11:55:05;44.4;36.2;24.6
74430;PMS7003;62863;52.062;23.764;2024-02-26T11:59:55;44.4;36.2;24.6
74430;PMS7003;62863;52.062;23.764;2024-02-26T12:04:32;45.4;37.4;23.8
74430;PMS7003;62863;52.062;23.764;2024-02-26T12:09:31;42;36.4;24.8
74430;PMS7003;62863;52.062;23.764;2024-02-26T12:14:50;46.6;36.8;23.8
74430;PMS7003;62863;52.062;23.764;2024-02-26T12:19:38;42.4;36;23.6
74430;PMS7003;62863;52.062;23.764;2024-02-26T12:24:38;40.2;35;23
74430;PMS7003;62863;52.062;23.764;2024-02-26T12:29:36;36.8;34.5;22.5
74430;PMS7003;62863;52.062;23.764;2024-02-26T12:34:54;40;33;22.8
74430;PMS7003;62863;52.062;23.764;2024-02-26T12:40:05;36.8;32;21.4
74430;PMS7003;62863;52.062;23.764;2024-02-26T12:44:37;36.8;32;21.4
74430;PMS7003;62863;52.062;23.764;2024-02-26T12:50:05;34.2;30.4;20.6
74430;PMS7003;62863;52.062;23.764;2024-02-26T12:54:31;34.2;30.4;20.6
74430;PMS7003;62863;52.062;23.764;2024-02-26T12:59:22;36.2;31.6;20.8
74430;PMS7003;62863;52.062;23.764;2024-02-26T13:04:24;36;31;20
74430;PMS7003;62863;52.062;23.764;2024-02-26T13:09:38;40;34.8;22
74430;PMS7003;62863;52.062;23.764;2024-02-26T13:14:34;46;37;23
74430;PMS7003;62863;52.062;23.764;2024-02-26T13:20:03;44;36.4;23.2
74430;PMS7003;62863;52.062;23.764;2024-02-26T13:24:53;35.6;33.2;21.6
74430;PMS7003;62863;52.062;23.764;2024-02-26T13:30:03;37.5;32.3;22
74430;PMS7003;62863;52.062;23.764;2024-02-26T13:35:05;39.8;33.4;21
74430;PMS7003;62863;52.062;23.764;2024-02-26T13:39:23;39.8;33.4;21
74430;PMS7003;62863;52.062;23.764;2024-02-26T13:45:05;37.2;32;21
74430;PMS7003;62863;52.062;23.764;2024-02-26T13:49:42;37.2;32;21
74430;PMS7003;62863;52.062;23.764;2024-02-26T13:54:54;39.8;34;22
74430;PMS7003;62863;52.062;23.764;2024-02-26T13:59:38;37.2;32.8;21.4
74430;PMS7003;62863;52.062;23.764;2024-02-26T14:04:40;37.8;33.2;22.4
74430;PMS7003;62863;52.062;23.764;2024-02-26T14:09:46;41.4;34.6;22.8
74430;PMS7003;62863;52.062;23.764;2024-02-26T14:15:06;41.6;35.4;24.4
74430;PMS7003;62863;52.062;23.764;2024-02-26T14:19:44;41.6;35.4;24.4
74430;PMS7003;62863;52.062;23.764;2024-02-26T14:25:04;42.5;35.3;23
74430;PMS7003;62863;52.062;23.764;2024-02-26T14:29:36;42.5;35.3;23
74430;PMS7003;62863;52.062;23.764;2024-02-26T14:34:48;46.2;38.8;25.6
74430;PMS7003;62863;52.062;23.764;2024-02-26T14:39:44;52;41.2;27
74430;PMS7003;62863;52.062;23.764;2024-02-26T14:44:30;47.8;39;25.8
74430;PMS7003;62863;52.062;23.764;2024-02-26T14:49:54;49.8;39.8;26
74430;PMS7003;62863;52.062;23.764;2024-02-26T14:54:31;61.6;47.2;29.6
74430;PMS7003;62863;52.062;23.764;2024-02-26T14:59:54;59.8;48.2;31.2
74430;PMS7003;62863;52.062;23.764;2024-02-26T15:04:38;52.8;42.4;27.6
74430;PMS7003;62863;52.062;23.764;2024-02-26T15:10:03;52.8;42.8;29
74430;PMS7003;62863;52.062;23.764;2024-02-26T15:14:38;50.6;41.8;27.4
74430;PMS7003;62863;52.062;23.764;2024-02-26T15:19:26;53;41.8;27.6
74430;PMS7003;62863;52.062;23.764;2024-02-26T15:24:38;55.2;42.8;27
74430;PMS7003;62863;52.062;23.764;2024-02-26T15:29:51;50;40.6;26.8
74430;PMS7003;62863;52.062;23.764;2024-02-26T15:34:36;50;40.4;25.2
74430;PMS7003;62863;52.062;23.764;2024-02-26T15:39:48;50;39.8;25.8
74430;PMS7003;62863;52.062;23.764;2024-02-26T15:45:05;50.2;40.2;25.6
74430;PMS7003;62863;52.062;23.764;2024-02-26T15:49:32;50.2;40.2;25.6
74430;PMS7003;62863;52.062;23.764;2024-02-26T15:54:52;54.2;41.8;26.8
74430;PMS7003;62863;52.062;23.764;2024-02-26T16:00:05;53.2;41.4;27
74430;PMS7003;62863;52.062;23.764;2024-02-26T16:05:03;53.2;41.4;27
74430;PMS7003;62863;52.062;23.764;2024-02-26T16:09:54;56;43.8;27.5
74430;PMS7003;62863;52.062;23.764;2024-02-26T16:14:24;56.8;43.4;27.8
74430;PMS7003;62863;52.062;23.764;2024-02-26T16:19:23;56.6;44;29
74430;PMS7003;62863;52.062;23.764;2024-02-26T16:24:38;58.2;45.6;29
74430;PMS7003;62863;52.062;23.764;2024-02-26T16:29:32;58.6;45.4;29
74430;PMS7003;62863;52.062;23.764;2024-02-26T16:34:22;56.4;44.4;29.4
74430;PMS7003;62863;52.062;23.764;2024-02-26T16:39:52;54.6;43.4;28.8
74430;PMS7003;62863;52.062;23.764;2024-02-26T16:44:46;62.8;48.6;31
74430;PMS7003;62863;52.062;23.764;2024-02-26T16:49:45;39.2;35.2;22.6
74430;PMS7003;62863;52.062;23.764;2024-02-26T16:55:03;40;32.6;22
74430;PMS7003;62863;52.062;23.764;2024-02-26T16:59:29;33.2;28.2;18.6
74430;PMS7003;62863;52.062;23.764;2024-02-26T17:04:53;27;23.4;17.4
74430;PMS7003;62863;52.062;23.764;2024-02-26T17:09:31;31;28.5;18.8
74430;PMS7003;62863;52.062;23.764;2024-02-26T17:14:46;32;27.4;18
74430;PMS7003;62863;52.062;23.764;2024-02-26T17:20:03;35.6;30;20.2
74430;PMS7003;62863;52.062;23.764;2024-02-26T17:25:03;31.4;27;18.4
74430;PMS7003;62863;52.062;23.764;2024-02-26T17:29:24;30.6;26;17.4
74430;PMS7003;62863;52.062;23.764;2024-02-26T17:34:49;27.2;25.2;17.8
74430;PMS7003;62863;52.062;23.764;2024-02-26T17:40:03;28.6;25.2;18.2
74430;PMS7003;62863;52.062;23.764;2024-02-26T17:44:55;28.2;25.2;16.8
74430;PMS7003;62863;52.062;23.764;2024-02-26T17:49:45;30.6;26.6;18.2
74430;PMS7003;62863;52.062;23.764;2024-02-26T17:54:23;28;25.4;17.4
74430;PMS7003;62863;52.062;23.764;2024-02-26T17:59:37;27.4;25.8;18
74430;PMS7003;62863;52.062;23.764;2024-02-26T18:04:31;31.2;28;18.4
74430;PMS7003;62863;52.062;23.764;2024-02-26T18:09:33;31.8;27.8;18.8
74430;PMS7003;62863;52.062;23.764;2024-02-26T18:14:47;32;26.4;17.6
74430;PMS7003;62863;52.062;23.764;2024-02-26T18:19:47;31.2;26;17.2
74430;PMS7003;62863;52.062;23.764;2024-02-26T18:24:59;28.8;25;17.2
74430;PMS7003;62863;52.062;23.764;2024-02-26T18:30:01;30.8;27.2;19.6
74430;PMS7003;62863;52.062;23.764;2024-02-26T18:34:55;27.6;24.4;16.8
74430;PMS7003;62863;52.062;23.764;2024-02-26T18:39:47;29.6;24.4;16.2
74430;PMS7003;62863;52.062;23.764;2024-02-26T18:44:23;30.4;24.6;17
74430;PMS7003;62863;52.062;23.764;2024-02-26T18:49:39;25.6;24;16.2
74430;PMS7003;62863;52.062;23.764;2024-02-26T18:54:57;30.4;25.8;18.2
74430;PMS7003;62863;52.062;23.764;2024-02-26T18:59:23;27.6;24.4;16.6
74430;PMS7003;62863;52.062;23.764;2024-02-26T19:04:23;29.2;26.2;18.6
74430;PMS7003;62863;52.062;23.764;2024-02-26T19:09:55;30.5;27.5;18.8
74430;PMS7003;62863;52.062;23.764;2024-02-26T19:15:05;29.4;24;16.2
74430;PMS7003;62863;52.062;23.764;2024-02-26T19:19:35;29.4;24;16.2
74430;PMS7003;62863;52.062;23.764;2024-02-26T19:24:33;29.8;27.5;18.8
74430;PMS7003;62863;52.062;23.764;2024-02-26T19:29:39;35.8;30.2;20.8
74430;PMS7003;62863;52.062;23.764;2024-02-26T19:34:23;33.8;30.4;20.6
74430;PMS7003;62863;52.062;23.764;2024-02-26T19:39:45;32.4;27.2;18.2
74430;PMS7003;62863;52.062;23.764;2024-02-26T19:44:39;33.3;28.7;18.7
74430;PMS7003;62863;52.062;23.764;2024-02-26T19:49:45;30.8;28.5;20.3
74430;PMS7003;62863;52.062;23.764;2024-02-26T19:55:05;31.4;28.2;19.6
74430;PMS7003;62863;52.062;23.764;2024-02-26T19:59:53;31.4;28.2;19.6
74430;PMS7003;62863;52.062;23.764;2024-02-26T20:05:03;27.6;23.6;16.6
74430;PMS7003;62863;52.062;23.764;2024-02-26T20:10:03;32;28.2;18.6
74430;PMS7003;62863;52.062;23.764;2024-02-26T20:14:23;32;28.2;18.6
74430;PMS7003;62863;52.062;23.764;2024-02-26T20:20:03;31.8;26.2;17.6
74430;PMS7003;62863;52.062;23.764;2024-02-26T20:25:03;30.6;26.8;18.4
74430;PMS7003;62863;52.062;23.764;2024-02-26T20:29:53;30.6;26.8;18.4
74430;PMS7003;62863;52.062;23.764;2024-02-26T20:34:31;32.8;28;19.4
74430;PMS7003;62863;52.062;23.764;2024-02-26T20:39:39;31;29.6;20.4
74430;PMS7003;62863;52.062;23.764;2024-02-26T20:44:33;36.6;31;21.6
74430;PMS7003;62863;52.062;23.764;2024-02-26T20:50:03;36.4;32;20
74430;PMS7003;62863;52.062;23.764;2024-02-26T20:54:41;36.4;32;20
74430;PMS7003;62863;52.062;23.764;2024-02-26T21:00:03;32.8;27;18.2
74430;PMS7003;62863;52.062;23.764;2024-02-26T21:04:23;32.8;27;18.2
74430;PMS7003;62863;52.062;23.764;2024-02-26T21:09:23;28;23.6;16.6
74430;PMS7003;62863;52.062;23.764;2024-02-26T21:14:31;29.2;26.2;17.8
74430;PMS7003;62863;52.062;23.764;2024-02-26T21:19:53;28.4;24.2;17.6
74430;PMS7003;62863;52.062;23.764;2024-02-26T21:24:31;29;22.8;15.2
74430;PMS7003;62863;52.062;23.764;2024-02-26T21:29:31;26.6;24.4;17
74430;PMS7003;62863;52.062;23.764;2024-02-26T21:34:55;26.4;23.6;15
74430;PMS7003;62863;52.062;23.764;2024-02-26T21:39:31;25.6;22;14.4
74430;PMS7003;62863;52.062;23.764;2024-02-26T21:45:03;23.3;21.5;13.8
74430;PMS7003;62863;52.062;23.764;2024-02-26T21:50:05;23.6;20.6;12.6
74430;PMS7003;62863;52.062;23.764;2024-02-26T21:55:03;26.2;21.2;14.2
74430;PMS7003;62863;52.062;23.764;2024-02-26T22:00:05;26.2;22.6;15.2
74430;PMS7003;62863;52.062;23.764;2024-02-26T22:04:41;26.2;22.6;15.2
74430;PMS7003;62863;52.062;23.764;2024-02-26T22:09:39;25;22.6;14.8
74430;PMS7003;62863;52.062;23.764;2024-02-26T22:14:49;25;22.6;14.8
74430;PMS7003;62863;52.062;23.764;2024-02-26T22:19:55;22.4;19;12.8
74430;PMS7003;62863;52.062;23.764;2024-02-26T22:25:05;25.2;21;15
74430;PMS7003;62863;52.062;23.764;2024-02-26T22:29:23;25.2;21;15
74430;PMS7003;62863;52.062;23.764;2024-02-26T22:35:05;27.2;20.6;14.6
74430;PMS7003;62863;52.062;23.764;2024-02-26T22:39:47;27.2;20.6;14.6
74430;PMS7003;62863;52.062;23.764;2024-02-26T22:44:23;25.6;21.8;16
74430;PMS7003;62863;52.062;23.764;2024-02-26T22:49:31;27;22.2;15.2
74430;PMS7003;62863;52.062;23.764;2024-02-26T22:54:23;23.8;20.8;14.5
74430;PMS7003;62863;52.062;23.764;2024-02-26T22:59:37;25;22.4;15.2
74430;PMS7003;62863;52.062;23.764;2024-02-26T23:04:51;24.8;21.4;15
74430;PMS7003;62863;52.062;23.764;2024-02-26T23:09:47;25.6;21.2;15
74430;PMS7003;62863;52.062;23.764;2024-02-26T23:14:39;27.4;21.4;15.2
74430;PMS7003;62863;52.062;23.764;2024-02-26T23:19:25;24.6;21.8;15.2
74430;PMS7003;62863;52.062;23.764;2024-02-26T23:24:53;26;21.8;15.4
74430;PMS7003;62863;52.062;23.764;2024-02-26T23:29:23;25.6;22.4;16
74430;PMS7003;62863;52.062;23.764;2024-02-26T23:34:37;25.4;23.4;16
74430;PMS7003;62863;52.062;23.764;2024-02-26T23:39:39;25.4;22;15.6
74430;PMS7003;62863;52.062;23.764;2024-02-26T23:44:53;26.4;22;14.8
74430;PMS7003;62863;52.062;23.764;2024-02-26T23:49:45;28.2;24.4;16.2
74430;PMS7003;62863;52.062;23.764;2024-02-26T23:54:53;24.5;21.5;14.5
74430;PMS7003;62863;52.062;23.764;2024-02-26T23:59:31;28.6;23.6;15
